ADDS METAR Data INFO
IDs: Format: Raw Decoded Include TAF

Data at: 0144 UTC 26 Feb 2018

KFLP 260056Z AUTO 10004KT 10SM CLR 09/01 A3009 RMK AO2 SLP190 T00940006
KFLP 252356Z AUTO 09004KT 10SM CLR 12/01 A3006 RMK AO2 SLP184 T01170006 10139 20094 55009 TSNO
KFLP 252327Z AUTO 10005KT 10SM FEW001 12/00 A3006 RMK AO2
KFLP 252256Z AUTO 12004KT 10SM CLR 13/M01 A3006 RMK AO2 SLP181 T01281006
KFLP 252156Z AUTO 11006KT 10SM CLR 13/00 A3006 RMK AO2 SLP182 T01330000
KFLP 252056Z AUTO 12006KT 10SM CLR 13/00 A3009 RMK AO2 SLP190 T01330000 56012
KFLP 251956Z AUTO VRB03KT 10SM CLR 12/01 A3010 RMK AO2 SLP193 T01220011
KFLP 251856Z AUTO 00000KT 10SM CLR 11/01 A3012 RMK AO2 SLP199 T01110006
KFLP 251756Z AUTO 16003KT 10SM CLR 09/M02 A3013 RMK AO2 SLP203 T00941017 10094 21022 58007
KFLP 251656Z AUTO VRB03KT 10SM CLR 08/01 A3016 RMK AO2 SLP213 T00830006
KFLP 251556Z AUTO VRB03KT 10SM CLR 07/02 A3015 RMK AO2 SLP209 T00670022
KFLP 251456Z AUTO 00000KT 10SM CLR 03/02 A3015 RMK AO2 SLP211 T00280017 53025
KFLP 251356Z AUTO 05003KT 5SM BR FEW002 M02/M02 A3012 RMK AO2 SLP201 T10171022 FZRANO
KFLP 251342Z AUTO 00000KT 5SM BR FEW002 M02/M02 A3011 RMK AO2 FZRANO
KFLP 251256Z AUTO 00000KT 4SM BR CLR M02/M03 A3009 RMK AO2 SLP192 T10221028 FZRANO
KFLP 251156Z AUTO 00000KT 6SM BR CLR M02/M02 A3007 RMK AO2 SLP186 70134 T10171022 10056 21017 53010 FZRANO
KFLP 251056Z AUTO 30003KT 5SM BR CLR M01/M02 A3003 RMK AO2 SLP173 T10111017 FZRANO
KFLP 250956Z AUTO 00000KT 7SM CLR 00/M01 A3004 RMK AO2 SLP173 T00001006 FZRANO
KFLP 250856Z AUTO 00000KT 10SM CLR 02/01 A3004 RMK AO2 SLP174 T00170006 50006 FZRANO
KFLP 250756Z AUTO 26004KT 10SM CLR 03/01 A3004 RMK AO2 SLP174 T00280006
KFLP 250656Z AUTO 26004KT 10SM CLR 04/01 A3004 RMK AO2 SLP172 T00390011
KFLP 250556Z AUTO 30008KT 10SM FEW026 06/01 A3002 RMK AO2 SLP167 T00560011 10156 20056 401560056 51040
KFLP 250456Z AUTO 29013KT 10SM CLR 06/02 A2999 RMK AO2 SLP156 T00610017
KFLP 250356Z AUTO 27014KT 10SM SCT030 08/02 A2995 RMK AO2 PK WND 27027/0340 SLP141 T00780022
KFLP 250256Z AUTO 28013G20KT 10SM SCT027 10/06 A2990 RMK AO2 SLP126 T01000056 53064
KFLP 250246Z AUTO 28012G24KT 10SM SCT027 10/06 A2990 RMK AO2
KFLP 250156Z AUTO 28021G25KT 10SM BKN020 OVC025 12/08 A2985 RMK AO2 PRESRR SLP108 T01220078
KFLP 250056Z AUTO 27013G17KT 10SM BKN022 OVC029 15/12 A2976 RMK AO2 SLP074 T01500117
KFLP 250037Z AUTO 27012KT 10SM BKN024 15/13 A2974 RMK AO2
KFLP 242356Z AUTO 25008KT 10SM SCT033 14/13 A2971 RMK AO2 SLP059 60128 T01390133 10139 20117 53005
KFLP 242339Z AUTO 00000KT 10SM SCT002 13/13 A2970 RMK AO2
KFLP 242256Z AUTO 26003KT 10SM BKN002 OVC023 13/13 A2966 RMK AO2 RAE04 SLP042 P0000 T01330128
KFLP 242228Z AUTO 25003KT 10SM SCT002 BKN015 OVC025 13/13 A2966 RMK AO2 RAE04 P0000
KFLP 242156Z AUTO 36003KT 10SM -RA BKN002 BKN049 OVC110 13/13 A2966 RMK AO2 TSE08 CIG 001V008 SLP042 P0026 T01280128
KFLP 242140Z AUTO 10006KT 5SM -RA BR FEW004 BKN042 OVC110 13/12 A2966 RMK AO2 LTG DSNT NE-SE TSE08 PRESFR P0026
KFLP 242108Z AUTO 34004KT 4SM +RA BR SCT017 BKN036 OVC055 13/12 A2970 RMK AO2 LTG DSNT ALQDS TSE08 P0012
KFLP 242056Z AUTO 00000KT 6SM TSRA BR FEW006 BKN019 OVC034 13/12 A2970 RMK AO2 WSHFT 2015 LTG DSNT N-SE SLP054 P0054 60102 T01280122 55012
KFLP 242044Z AUTO 00000KT 2 1/2SM +TSRA BR SCT006 BKN018 OVC036 13/12 A2970 RMK AO2 WSHFT 2015 LTG DSNT ALQDS P0041
KFLP 242032Z AUTO VRB04G17KT 2SM +TSRA BR FEW003 BKN012 OVC019 13/12 A2970 RMK AO2 WSHFT 2015 LTG DSNT ALQDS P0026
KFLP 242029Z AUTO 27010G21KT 1 1/2SM +TSRA BR FEW003 BKN019 OVC025 13/12 A2974 RMK AO2 WSHFT 2015 LTG DSNT ALQDS P0023
KFLP 242021Z AUTO 31016G21KT 2 1/2SM +TSRA BR FEW003 BKN019 OVC027 13/13 A2971 RMK AO2 VIS 1V5 LTG DSNT ALQDS P0013
KFLP 242015Z AUTO 31010KT 3SM +TSRA BR SCT017 BKN024 OVC031 13/13 A2971 RMK AO2 LTG DSNT ALQDS PRESRR P0009
KFLP 241959Z AUTO 08003KT 1 3/4SM VCTS RA BR FEW005 BKN021 OVC028 13/13 A2968 RMK AO2 VIS 1/2V5 LTG DSNT SW-N P0001
KFLP 241956Z AUTO 08005KT 2 1/2SM VCTS RA BR FEW005 BKN014 OVC026 13/13 A2969 RMK AO2 VIS 1/2V5 LTG DSNT SW-N TSB52 SLP052 P0027 T01280128
KFLP 241951Z AUTO 07003KT 6SM RA BR SCT003 BKN014 OVC020 13/13 A2969 RMK AO2 LTG DSNT SW-N PRESFR P0027
KFLP 241933Z AUTO 31003KT 3SM RA BR OVC003 13/12 A2973 RMK AO2 LTG DSNT NW CIG 003V006 P0021
KFLP 241924Z AUTO 00000KT 1 3/4SM +RA BR OVC003 13/13 A2972 RMK AO2 VIS 1 1/4V3 P0013
KFLP 241856Z AUTO 00000KT 5SM +RA BR OVC003 12/12 A2973 RMK AO2 TSB17E32 SLP067 P0021 T01220122
KFLP 241842Z AUTO 11009KT 3SM RA BR OVC003 12/12 A2974 RMK AO2 TSB17E32 P0017
KFLP 241835Z AUTO 07006KT 2SM RA BR OVC003 12/12 A2974 RMK AO2 TSB17E32 P0015
KFLP 241832Z AUTO VRB04KT 1SM RA BR OVC003 12/12 A2975 RMK AO2 LTG DSNT SE TSB17E32 PRESFR P0014
KFLP 241830Z AUTO 09005KT 3/4SM VCTS RA BR OVC003 12/12 A2976 RMK AO2 LTG DSNT NE AND SE AND SW TSB17 P0013
KFLP 241822Z AUTO 08005KT 1SM VCTS RA BR OVC003 12/12 A2976 RMK AO2 LTG DSNT NE AND SE AND SW TSB17 PRESFR P0010
KFLP 241817Z AUTO 09004KT 2SM VCTS RA BR OVC003 12/12 A2979 RMK AO2 VIS 1 3/4V3 LTG DSNT NE AND SW TSB17 PRESFR P0008
KFLP 241813Z AUTO 00000KT 1 3/4SM RA BR OVC003 12/12 A2980 RMK AO2 VIS 1 1/4V3 P0007
KFLP 241803Z AUTO 00000KT 1SM RA BR OVC003 12/12 A2982 RMK AO2 P0003
KFLP 241756Z AUTO 12004KT 1/2SM RA FG OVC003 12/12 A2982 RMK AO2 SLP097 P0005 60006 T01170117 10117 20094 56029
KFLP 241719Z AUTO 11004KT 1/4SM -RA FG OVC003 12/11 A2984 RMK AO2 P0000
KFLP 241713Z AUTO 11004KT 3/4SM BR OVC003 12/11 A2984 RMK AO2 RAE11 P0000
KFLP 241656Z AUTO 07005KT 1 1/4SM -RA BR OVC003 12/11 A2982 RMK AO2 TSB23E38RAB02 PRESFR SLP098 P0000 T01170111
KFLP 241653Z AUTO 06003KT 1 1/4SM -RA BR OVC003 12/11 A2983 RMK AO2 TSB23E38RAB02 P0000
KFLP 241644Z AUTO 08004KT 2SM -RA BR OVC003 11/11 A2984 RMK AO2 VIS 1 1/2V3 LTG DSNT NE TSB23E38RAB02 P0000
KFLP 241629Z AUTO 08005KT 2SM VCTS -RA BR OVC003 11/11 A2986 RMK AO2 LTG DSNT NE TSB23RAB02 PRESFR P0000
KFLP 241606Z AUTO 00000KT 2SM -RA BR OVC003 11/11 A2990 RMK AO2 RAB02 P0000
KFLP 241556Z AUTO 12006KT 3SM BR OVC003 11/11 A2990 RMK AO2 SLP126 T01110106
KFLP 241548Z AUTO 11006KT 2 1/2SM BR OVC003 11/11 A2990 RMK AO2
KFLP 241525Z AUTO 10005KT 1 3/4SM BR OVC003 11/11 A2991 RMK AO2 PRESFR
KFLP 241456Z AUTO 12003KT 10SM OVC003 11/11 A2994 RMK AO2 SLP136 60001 T01060106 58012
KFLP 241356Z AUTO 00000KT 5SM BR OVC003 10/10 A2996 RMK AO2 SLP143 P0001 T01000100